< < Back
Terminal Aerodrome Forecast


Current Version              Previous Versions:   1  2  3  4  5  6  7  8  9  

Terminal Aerodrome Forecast

719
FTUS42 KTAE 291700
TAFABY
TAF
KABY 291729Z 2918/3018 03004KT 4SM -RA OVC008
     FM292100 05005KT P6SM OVC007
     FM301500 06007KT P6SM SCT007 BKN020=

Latest METAR

799
SAUS70 KWBC 300900 RRB
MTRABY
METAR KABY 300853Z 05005KT 9SM OVC008 21/19 A2990 RMK AO2 CIG 006V010
SLP123 T02060194 51001 $


USA.gov is the U.S. government's official web portal to all federal, state and local government web resources and services.